sensor_id;sensor_type;location;lat;lon;timestamp;pressure;altitude;pressure_sealevel;temperature;humidity
17450;BME280;8842;51.244;7.102;2022-09-16T00:09:53;98866.46;;;13.24;100.00
17450;BME280;8842;51.244;7.102;2022-09-16T00:20:09;98865.98;;;13.24;100.00
17450;BME280;8842;51.244;7.102;2022-09-16T00:30:24;98864.20;;;13.15;100.00
17450;BME280;8842;51.244;7.102;2022-09-16T00:40:44;98849.72;;;13.18;100.00
17450;BME280;8842;51.244;7.102;2022-09-16T00:51:05;98856.53;;;13.16;100.00
17450;BME280;8842;51.244;7.102;2022-09-16T01:01:24;98867.94;;;13.09;100.00
17450;BME280;8842;51.244;7.102;2022-09-16T01:11:39;98869.38;;;13.03;100.00
17450;BME280;8842;51.244;7.102;2022-09-16T01:27:36;98866.71;;;12.94;100.00
17450;BME280;8842;51.244;7.102;2022-09-16T01:37:56;98866.71;;;12.94;100.00
17450;BME280;8842;51.244;7.102;2022-09-16T01:48:15;98871.00;;;13.00;100.00
17450;BME280;8842;51.244;7.102;2022-09-16T01:58:35;98864.34;;;12.91;100.00
17450;BME280;8842;51.244;7.102;2022-09-16T02:08:52;98866.71;;;12.94;100.00
17450;BME280;8842;51.244;7.102;2022-09-16T02:19:14;98849.64;;;12.87;100.00
17450;BME280;8842;51.244;7.102;2022-09-16T02:29:31;98849.93;;;12.84;100.00
17450;BME280;8842;51.244;7.102;2022-09-16T02:39:52;98853.17;;;12.78;100.00
17450;BME280;8842;51.244;7.102;2022-09-16T02:50:12;98846.62;;;12.72;100.00
17450;BME280;8842;51.244;7.102;2022-09-16T03:00:30;98837.63;;;12.73;100.00
17450;BME280;8842;51.244;7.102;2022-09-16T03:10:46;98844.37;;;12.77;100.00
17450;BME280;8842;51.244;7.102;2022-09-16T03:26:24;98830.17;;;12.63;100.00
17450;BME280;8842;51.244;7.102;2022-09-16T03:36:42;98823.22;;;12.66;100.00
17450;BME280;8842;51.244;7.102;2022-09-16T03:46:57;98818.95;;;12.60;100.00
17450;BME280;8842;51.244;7.102;2022-09-16T03:57:13;98825.84;;;12.62;100.00
17450;BME280;8842;51.244;7.102;2022-09-16T04:07:32;98826.25;;;12.44;100.00
17450;BME280;8842;51.244;7.102;2022-09-16T04:17:47;98808.45;;;12.45;100.00
17450;BME280;8842;51.244;7.102;2022-09-16T04:28:02;98793.20;;;12.37;100.00
17450;BME280;8842;51.244;7.102;2022-09-16T04:38:17;98808.73;;;12.19;100.00
17450;BME280;8842;51.244;7.102;2022-09-16T04:48:33;98805.73;;;12.08;100.00
17450;BME280;8842;51.244;7.102;2022-09-16T04:58:53;98813.09;;;12.00;100.00
17450;BME280;8842;51.244;7.102;2022-09-16T05:09:09;98813.77;;;12.12;100.00
17450;BME280;8842;51.244;7.102;2022-09-16T05:19:28;98809.63;;;12.23;100.00
17450;BME280;8842;51.244;7.102;2022-09-16T05:29:43;98804.43;;;12.31;100.00
17450;BME280;8842;51.244;7.102;2022-09-16T05:39:58;98806.39;;;12.29;100.00
17450;BME280;8842;51.244;7.102;2022-09-16T05:50:13;98807.77;;;12.33;100.00
17450;BME280;8842;51.244;7.102;2022-09-16T06:00:31;98820.50;;;12.39;100.00
17450;BME280;8842;51.244;7.102;2022-09-16T06:10:48;98821.98;;;12.38;100.00
17450;BME280;8842;51.244;7.102;2022-09-16T06:21:05;98811.91;;;12.32;100.00
17450;BME280;8842;51.244;7.102;2022-09-16T06:31:22;98820.68;;;12.51;100.00
17450;BME280;8842;51.244;7.102;2022-09-16T06:41:38;98820.41;;;12.68;100.00
17450;BME280;8842;51.244;7.102;2022-09-16T06:46:42;98824.59;;;12.70;100.00
17450;BME280;8842;51.244;7.102;2022-09-16T06:51:46;98837.34;;;12.76;100.00
17450;BME280;8842;51.244;7.102;2022-09-16T07:02:01;98825.42;;;12.80;100.00
17450;BME280;8842;51.244;7.102;2022-09-16T07:12:19;98817.80;;;12.85;100.00
17450;BME280;8842;51.244;7.102;2022-09-16T07:27:52;98828.43;;;12.95;100.00
17450;BME280;8842;51.244;7.102;2022-09-16T07:38:10;98848.46;;;13.08;100.00
17450;BME280;8842;51.244;7.102;2022-09-16T07:48:28;98855.83;;;13.28;100.00
17450;BME280;8842;51.244;7.102;2022-09-16T07:58:45;98865.56;;;13.46;100.00
17450;BME280;8842;51.244;7.102;2022-09-16T08:09:03;98870.61;;;13.36;100.00
17450;BME280;8842;51.244;7.102;2022-09-16T08:19:19;98876.58;;;13.65;100.00
17450;BME280;8842;51.244;7.102;2022-09-16T08:29:35;98885.65;;;13.85;100.00
17450;BME280;8842;51.244;7.102;2022-09-16T08:39:50;98889.30;;;14.20;100.00
17450;BME280;8842;51.244;7.102;2022-09-16T08:50:11;98878.63;;;14.63;100.00
17450;BME280;8842;51.244;7.102;2022-09-16T09:00:26;98870.31;;;15.03;100.00
17450;BME280;8842;51.244;7.102;2022-09-16T09:10:46;98874.03;;;15.44;100.00
17450;BME280;8842;51.244;7.102;2022-09-16T09:21:12;98879.13;;;15.71;100.00
17450;BME280;8842;51.244;7.102;2022-09-16T09:36:51;98886.56;;;15.39;100.00
17450;BME280;8842;51.244;7.102;2022-09-16T09:47:14;98878.45;;;15.31;100.00
17450;BME280;8842;51.244;7.102;2022-09-16T09:57:35;98874.55;;;15.14;100.00
17450;BME280;8842;51.244;7.102;2022-09-16T10:07:54;98859.68;;;15.19;100.00
17450;BME280;8842;51.244;7.102;2022-09-16T10:13:07;98874.06;;;15.14;100.00
17450;BME280;8842;51.244;7.102;2022-09-16T10:23:24;98865.50;;;15.11;100.00
17450;BME280;8842;51.244;7.102;2022-09-16T10:33:42;98861.23;;;15.30;100.00
17450;BME280;8842;51.244;7.102;2022-09-16T10:38:51;98861.34;;;15.58;100.00
17450;BME280;8842;51.244;7.102;2022-09-16T10:49:10;98843.01;;;16.15;95.66
17450;BME280;8842;51.244;7.102;2022-09-16T10:59:33;98838.95;;;16.35;91.30
17450;BME280;8842;51.244;7.102;2022-09-16T11:10:11;98850.04;;;16.44;86.44
17450;BME280;8842;51.244;7.102;2022-09-16T11:15:23;98843.17;;;16.14;87.77
17450;BME280;8842;51.244;7.102;2022-09-16T11:31:03;98835.63;;;16.33;95.00
17450;BME280;8842;51.244;7.102;2022-09-16T11:47:11;98862.25;;;15.98;100.00
17450;BME280;8842;51.244;7.102;2022-09-16T11:57:34;98878.55;;;15.10;100.00
17450;BME280;8842;51.244;7.102;2022-09-16T12:07:55;98908.80;;;13.36;100.00
17450;BME280;8842;51.244;7.102;2022-09-16T12:23:38;98887.16;;;12.43;100.00
17450;BME280;8842;51.244;7.102;2022-09-16T12:33:59;98886.20;;;12.81;100.00
17450;BME280;8842;51.244;7.102;2022-09-16T12:39:04;98891.23;;;12.84;100.00
17450;BME280;8842;51.244;7.102;2022-09-16T13:00:49;98871.85;;;12.91;100.00
17450;BME280;8842;51.244;7.102;2022-09-16T13:11:19;98864.75;;;13.05;100.00
17450;BME280;8842;51.244;7.102;2022-09-16T13:16:31;98862.72;;;13.17;100.00
17450;BME280;8842;51.244;7.102;2022-09-16T13:26:46;98873.42;;;13.65;100.00
17450;BME280;8842;51.244;7.102;2022-09-16T13:31:51;98880.55;;;13.61;100.00
17450;BME280;8842;51.244;7.102;2022-09-16T13:42:15;98898.70;;;13.88;100.00
17450;BME280;8842;51.244;7.102;2022-09-16T13:52:43;98894.78;;;14.00;100.00
17450;BME280;8842;51.244;7.102;2022-09-16T14:03:39;98886.69;;;13.88;100.00
17450;BME280;8842;51.244;7.102;2022-09-16T14:19:21;98881.95;;;13.82;100.00
17450;BME280;8842;51.244;7.102;2022-09-16T14:29:35;98880.62;;;13.82;100.00
17450;BME280;8842;51.244;7.102;2022-09-16T14:39:54;98883.09;;;13.66;100.00
17450;BME280;8842;51.244;7.102;2022-09-16T14:55:31;98865.30;;;13.40;100.00
17450;BME280;8842;51.244;7.102;2022-09-16T15:05:49;98870.91;;;13.19;100.00
17450;BME280;8842;51.244;7.102;2022-09-16T15:10:56;98869.56;;;13.06;100.00
17450;BME280;8842;51.244;7.102;2022-09-16T15:21:19;98857.11;;;12.83;100.00
17450;BME280;8842;51.244;7.102;2022-09-16T15:31:37;98860.88;;;12.81;100.00
17450;BME280;8842;51.244;7.102;2022-09-16T15:36:43;98856.80;;;12.73;100.00
17450;BME280;8842;51.244;7.102;2022-09-16T15:41:48;98854.56;;;12.68;100.00
17450;BME280;8842;51.244;7.102;2022-09-16T15:46:52;98848.70;;;12.55;100.00
17450;BME280;8842;51.244;7.102;2022-09-16T15:57:25;98847.36;;;12.55;100.00
17450;BME280;8842;51.244;7.102;2022-09-16T16:07:43;98853.03;;;12.79;100.00
17450;BME280;8842;51.244;7.102;2022-09-16T16:18:04;98856.06;;;12.80;100.00
17450;BME280;8842;51.244;7.102;2022-09-16T16:28:23;98852.34;;;12.91;100.00
17450;BME280;8842;51.244;7.102;2022-09-16T16:38:41;98869.68;;;12.77;100.00
17450;BME280;8842;51.244;7.102;2022-09-16T16:43:46;98879.87;;;12.68;100.00
17450;BME280;8842;51.244;7.102;2022-09-16T16:54:06;98883.97;;;12.76;100.00
17450;BME280;8842;51.244;7.102;2022-09-16T17:04:21;98880.02;;;12.67;100.00
17450;BME280;8842;51.244;7.102;2022-09-16T17:09:26;98877.13;;;12.64;100.00
17450;BME280;8842;51.244;7.102;2022-09-16T17:19:43;98893.20;;;12.68;100.00
17450;BME280;8842;51.244;7.102;2022-09-16T17:29:59;98899.20;;;12.70;100.00
17450;BME280;8842;51.244;7.102;2022-09-16T17:40:16;98902.63;;;12.53;100.00
17450;BME280;8842;51.244;7.102;2022-09-16T17:45:20;98913.14;;;12.45;100.00
17450;BME280;8842;51.244;7.102;2022-09-16T17:50:25;98921.59;;;12.31;100.00
17450;BME280;8842;51.244;7.102;2022-09-16T18:00:41;98927.25;;;12.23;100.00
17450;BME280;8842;51.244;7.102;2022-09-16T18:10:59;98927.06;;;12.01;100.00
17450;BME280;8842;51.244;7.102;2022-09-16T18:26:30;98938.31;;;11.80;100.00
17450;BME280;8842;51.244;7.102;2022-09-16T18:36:46;98930.81;;;11.70;100.00
17450;BME280;8842;51.244;7.102;2022-09-16T18:41:50;98938.87;;;11.59;100.00
17450;BME280;8842;51.244;7.102;2022-09-16T18:52:08;98952.98;;;11.65;100.00
17450;BME280;8842;51.244;7.102;2022-09-16T19:02:23;98943.23;;;11.60;100.00
17450;BME280;8842;51.244;7.102;2022-09-16T19:17:53;98954.48;;;11.58;100.00
17450;BME280;8842;51.244;7.102;2022-09-16T19:28:08;98959.87;;;11.52;100.00
17450;BME280;8842;51.244;7.102;2022-09-16T19:38:34;98959.21;;;11.45;100.00
17450;BME280;8842;51.244;7.102;2022-09-16T19:48:52;98953.91;;;11.30;100.00
17450;BME280;8842;51.244;7.102;2022-09-16T19:59:17;98956.36;;;11.12;100.00
17450;BME280;8842;51.244;7.102;2022-09-16T20:09:35;98964.48;;;11.05;100.00
17450;BME280;8842;51.244;7.102;2022-09-16T20:19:51;98969.86;;;11.00;100.00
17450;BME280;8842;51.244;7.102;2022-09-16T20:30:11;98988.25;;;11.12;100.00
17450;BME280;8842;51.244;7.102;2022-09-16T20:40:28;98992.80;;;11.16;100.00
17450;BME280;8842;51.244;7.102;2022-09-16T20:45:35;99001.41;;;11.14;100.00
17450;BME280;8842;51.244;7.102;2022-09-16T20:55:59;98997.98;;;11.17;100.00
17450;BME280;8842;51.244;7.102;2022-09-16T21:06:17;99007.42;;;11.16;100.00
17450;BME280;8842;51.244;7.102;2022-09-16T21:11:22;99016.19;;;11.22;100.00
17450;BME280;8842;51.244;7.102;2022-09-16T21:21:38;99014.86;;;11.22;100.00
17450;BME280;8842;51.244;7.102;2022-09-16T21:31:54;99015.59;;;11.24;100.00
17450;BME280;8842;51.244;7.102;2022-09-16T21:36:58;99021.34;;;11.14;100.00
17450;BME280;8842;51.244;7.102;2022-09-16T21:47:13;99015.64;;;11.18;100.00
17450;BME280;8842;51.244;7.102;2022-09-16T21:57:29;99024.22;;;11.16;100.00
17450;BME280;8842;51.244;7.102;2022-09-16T22:07:45;99034.11;;;11.20;100.00
17450;BME280;8842;51.244;7.102;2022-09-16T22:12:49;99033.44;;;11.12;100.00
17450;BME280;8842;51.244;7.102;2022-09-16T22:23:05;99036.75;;;11.05;100.00
17450;BME280;8842;51.244;7.102;2022-09-16T22:33:22;99018.36;;;11.07;100.00
17450;BME280;8842;51.244;7.102;2022-09-16T22:38:26;99031.05;;;11.09;100.00
17450;BME280;8842;51.244;7.102;2022-09-16T22:48:48;99039.57;;;11.13;100.00
17450;BME280;8842;51.244;7.102;2022-09-16T22:59:06;99037.01;;;11.02;100.00
17450;BME280;8842;51.244;7.102;2022-09-16T23:09:24;99035.27;;;10.91;100.00
17450;BME280;8842;51.244;7.102;2022-09-16T23:19:42;99028.53;;;10.87;100.00
17450;BME280;8842;51.244;7.102;2022-09-16T23:29:57;99040.24;;;10.85;100.00
17450;BME280;8842;51.244;7.102;2022-09-16T23:40:12;99035.23;;;10.76;100.00
17450;BME280;8842;51.244;7.102;2022-09-16T23:45:16;99038.62;;;10.73;100.00
17450;BME280;8842;51.244;7.102;2022-09-16T23:50:21;99039.25;;;10.71;100.00
